sensor_id;sensor_type;location;lat;lon;timestamp;temperature;humidity
4505;DHT22;2265;48.794;9.520;2023-07-31T00:00:41;16.40;98.00
4505;DHT22;2265;48.794;9.520;2023-07-31T00:03:08;16.30;98.00
4505;DHT22;2265;48.794;9.520;2023-07-31T00:05:36;16.40;98.00
4505;DHT22;2265;48.794;9.520;2023-07-31T00:08:03;16.20;98.00
4505;DHT22;2265;48.794;9.520;2023-07-31T00:10:30;16.40;98.00
4505;DHT22;2265;48.794;9.520;2023-07-31T00:12:57;16.10;98.00
4505;DHT22;2265;48.794;9.520;2023-07-31T00:15:28;16.00;98.00
4505;DHT22;2265;48.794;9.520;2023-07-31T00:17:55;15.90;98.00
4505;DHT22;2265;48.794;9.520;2023-07-31T00:20:22;15.90;98.00
4505;DHT22;2265;48.794;9.520;2023-07-31T00:22:50;15.90;98.00
4505;DHT22;2265;48.794;9.520;2023-07-31T00:25:17;15.90;98.00
4505;DHT22;2265;48.794;9.520;2023-07-31T00:27:44;16.00;98.00
4505;DHT22;2265;48.794;9.520;2023-07-31T00:30:12;15.90;98.00
4505;DHT22;2265;48.794;9.520;2023-07-31T00:32:40;15.80;98.00
4505;DHT22;2265;48.794;9.520;2023-07-31T00:35:07;15.90;98.00
4505;DHT22;2265;48.794;9.520;2023-07-31T00:37:35;15.90;98.00
4505;DHT22;2265;48.794;9.520;2023-07-31T00:40:02;15.80;98.00
4505;DHT22;2265;48.794;9.520;2023-07-31T00:42:29;15.80;98.00
4505;DHT22;2265;48.794;9.520;2023-07-31T00:44:56;15.90;98.00
4505;DHT22;2265;48.794;9.520;2023-07-31T00:47:24;15.80;98.00
4505;DHT22;2265;48.794;9.520;2023-07-31T00:49:52;15.90;98.00
4505;DHT22;2265;48.794;9.520;2023-07-31T00:52:20;15.90;98.00
4505;DHT22;2265;48.794;9.520;2023-07-31T00:54:48;15.80;98.00
4505;DHT22;2265;48.794;9.520;2023-07-31T00:57:15;15.70;98.00
4505;DHT22;2265;48.794;9.520;2023-07-31T00:59:42;15.80;98.00
4505;DHT22;2265;48.794;9.520;2023-07-31T01:02:09;15.70;98.00
4505;DHT22;2265;48.794;9.520;2023-07-31T01:04:37;15.70;98.00
4505;DHT22;2265;48.794;9.520;2023-07-31T01:07:11;15.70;98.00
4505;DHT22;2265;48.794;9.520;2023-07-31T01:09:44;15.80;98.00
4505;DHT22;2265;48.794;9.520;2023-07-31T01:12:15;15.80;98.00
4505;DHT22;2265;48.794;9.520;2023-07-31T01:14:51;15.70;98.00
4505;DHT22;2265;48.794;9.520;2023-07-31T01:17:18;15.60;98.00
4505;DHT22;2265;48.794;9.520;2023-07-31T01:19:46;15.70;98.00
4505;DHT22;2265;48.794;9.520;2023-07-31T01:22:30;15.60;98.00
4505;DHT22;2265;48.794;9.520;2023-07-31T01:25:11;15.40;98.00
4505;DHT22;2265;48.794;9.520;2023-07-31T01:27:49;15.10;98.00
4505;DHT22;2265;48.794;9.520;2023-07-31T01:30:22;15.00;98.00
4505;DHT22;2265;48.794;9.520;2023-07-31T01:32:49;15.00;98.00
4505;DHT22;2265;48.794;9.520;2023-07-31T01:35:18;15.00;98.00
4505;DHT22;2265;48.794;9.520;2023-07-31T01:37:45;14.90;98.00
4505;DHT22;2265;48.794;9.520;2023-07-31T01:40:12;15.00;98.00
4505;DHT22;2265;48.794;9.520;2023-07-31T01:42:40;15.00;98.00
4505;DHT22;2265;48.794;9.520;2023-07-31T01:45:09;14.90;98.00
4505;DHT22;2265;48.794;9.520;2023-07-31T01:47:36;15.10;98.00
4505;DHT22;2265;48.794;9.520;2023-07-31T01:50:04;15.10;98.00
4505;DHT22;2265;48.794;9.520;2023-07-31T01:52:32;15.00;98.00
4505;DHT22;2265;48.794;9.520;2023-07-31T01:54:59;15.00;98.00
4505;DHT22;2265;48.794;9.520;2023-07-31T01:57:26;15.00;98.00
4505;DHT22;2265;48.794;9.520;2023-07-31T01:59:53;15.10;98.00
4505;DHT22;2265;48.794;9.520;2023-07-31T02:02:23;15.00;98.00
4505;DHT22;2265;48.794;9.520;2023-07-31T02:04:50;15.00;98.00
4505;DHT22;2265;48.794;9.520;2023-07-31T02:07:17;15.00;98.00
4505;DHT22;2265;48.794;9.520;2023-07-31T02:09:44;15.00;98.00
4505;DHT22;2265;48.794;9.520;2023-07-31T02:12:12;14.90;98.00
4505;DHT22;2265;48.794;9.520;2023-07-31T02:14:40;14.90;98.00
4505;DHT22;2265;48.794;9.520;2023-07-31T02:17:07;15.00;98.00
4505;DHT22;2265;48.794;9.520;2023-07-31T02:19:35;15.00;98.00
4505;DHT22;2265;48.794;9.520;2023-07-31T02:22:04;14.70;98.00
4505;DHT22;2265;48.794;9.520;2023-07-31T02:24:31;14.70;98.00
4505;DHT22;2265;48.794;9.520;2023-07-31T02:26:58;14.60;98.00
4505;DHT22;2265;48.794;9.520;2023-07-31T02:29:25;14.60;98.00
4505;DHT22;2265;48.794;9.520;2023-07-31T02:31:52;14.50;98.00
4505;DHT22;2265;48.794;9.520;2023-07-31T02:34:20;14.50;98.00
4505;DHT22;2265;48.794;9.520;2023-07-31T02:36:48;14.50;98.00
4505;DHT22;2265;48.794;9.520;2023-07-31T02:39:15;14.60;98.00
4505;DHT22;2265;48.794;9.520;2023-07-31T02:41:43;14.60;98.00
4505;DHT22;2265;48.794;9.520;2023-07-31T02:44:10;14.80;98.00
4505;DHT22;2265;48.794;9.520;2023-07-31T02:46:40;14.70;98.00
4505;DHT22;2265;48.794;9.520;2023-07-31T02:49:07;14.70;98.00
4505;DHT22;2265;48.794;9.520;2023-07-31T02:51:34;14.80;98.00
4505;DHT22;2265;48.794;9.520;2023-07-31T02:54:02;14.80;98.00
4505;DHT22;2265;48.794;9.520;2023-07-31T02:56:29;14.70;98.00
4505;DHT22;2265;48.794;9.520;2023-07-31T02:58:56;14.60;98.00
4505;DHT22;2265;48.794;9.520;2023-07-31T03:01:23;14.50;98.00
4505;DHT22;2265;48.794;9.520;2023-07-31T03:03:51;14.40;98.00
4505;DHT22;2265;48.794;9.520;2023-07-31T03:06:18;14.50;98.00
4505;DHT22;2265;48.794;9.520;2023-07-31T03:08:45;14.50;98.00
4505;DHT22;2265;48.794;9.520;2023-07-31T03:11:13;14.40;98.00
4505;DHT22;2265;48.794;9.520;2023-07-31T03:13:40;14.40;98.00
4505;DHT22;2265;48.794;9.520;2023-07-31T03:16:07;14.40;98.00
4505;DHT22;2265;48.794;9.520;2023-07-31T03:18:34;14.50;98.00
4505;DHT22;2265;48.794;9.520;2023-07-31T03:21:03;14.50;98.00
4505;DHT22;2265;48.794;9.520;2023-07-31T03:23:31;14.70;98.00
4505;DHT22;2265;48.794;9.520;2023-07-31T03:25:59;14.70;98.00
4505;DHT22;2265;48.794;9.520;2023-07-31T03:28:28;14.80;98.00
4505;DHT22;2265;48.794;9.520;2023-07-31T03:30:55;14.90;98.00
4505;DHT22;2265;48.794;9.520;2023-07-31T03:33:23;14.70;98.00
4505;DHT22;2265;48.794;9.520;2023-07-31T03:35:50;14.60;98.00
4505;DHT22;2265;48.794;9.520;2023-07-31T03:38:17;14.50;98.00
4505;DHT22;2265;48.794;9.520;2023-07-31T03:40:44;14.50;98.00
4505;DHT22;2265;48.794;9.520;2023-07-31T03:43:12;14.50;98.00
4505;DHT22;2265;48.794;9.520;2023-07-31T03:45:40;14.60;98.00
4505;DHT22;2265;48.794;9.520;2023-07-31T03:48:07;14.40;98.00
4505;DHT22;2265;48.794;9.520;2023-07-31T03:50:34;14.40;98.00
4505;DHT22;2265;48.794;9.520;2023-07-31T03:53:02;14.40;98.00
4505;DHT22;2265;48.794;9.520;2023-07-31T03:55:29;14.40;98.00
4505;DHT22;2265;48.794;9.520;2023-07-31T03:57:57;14.40;98.00
4505;DHT22;2265;48.794;9.520;2023-07-31T04:00:26;14.30;98.00
4505;DHT22;2265;48.794;9.520;2023-07-31T04:02:55;14.30;98.00
4505;DHT22;2265;48.794;9.520;2023-07-31T04:05:22;14.20;98.00
4505;DHT22;2265;48.794;9.520;2023-07-31T04:07:49;14.30;98.00
4505;DHT22;2265;48.794;9.520;2023-07-31T04:10:16;14.40;98.00
4505;DHT22;2265;48.794;9.520;2023-07-31T04:12:43;14.30;98.00
4505;DHT22;2265;48.794;9.520;2023-07-31T04:15:10;14.30;98.00
4505;DHT22;2265;48.794;9.520;2023-07-31T04:17:37;14.40;98.00
4505;DHT22;2265;48.794;9.520;2023-07-31T04:20:07;14.60;98.00
4505;DHT22;2265;48.794;9.520;2023-07-31T04:22:34;14.50;98.00
4505;DHT22;2265;48.794;9.520;2023-07-31T04:25:01;14.50;98.00
4505;DHT22;2265;48.794;9.520;2023-07-31T04:27:28;14.60;98.00
4505;DHT22;2265;48.794;9.520;2023-07-31T04:29:55;14.60;98.00
4505;DHT22;2265;48.794;9.520;2023-07-31T04:32:22;14.60;98.00
4505;DHT22;2265;48.794;9.520;2023-07-31T04:34:52;14.60;98.00
4505;DHT22;2265;48.794;9.520;2023-07-31T04:37:22;14.60;98.00
4505;DHT22;2265;48.794;9.520;2023-07-31T04:39:49;14.70;98.00
4505;DHT22;2265;48.794;9.520;2023-07-31T04:42:16;14.70;98.00
4505;DHT22;2265;48.794;9.520;2023-07-31T04:44:44;14.80;98.00
4505;DHT22;2265;48.794;9.520;2023-07-31T04:47:11;14.90;98.00
4505;DHT22;2265;48.794;9.520;2023-07-31T04:49:38;14.90;98.00
4505;DHT22;2265;48.794;9.520;2023-07-31T04:52:05;15.00;98.00
4505;DHT22;2265;48.794;9.520;2023-07-31T04:54:34;15.10;98.00
4505;DHT22;2265;48.794;9.520;2023-07-31T04:57:03;15.20;98.00
4505;DHT22;2265;48.794;9.520;2023-07-31T04:59:30;15.30;98.00
4505;DHT22;2265;48.794;9.520;2023-07-31T05:01:57;15.50;98.00
4505;DHT22;2265;48.794;9.520;2023-07-31T05:04:24;15.70;98.00
4505;DHT22;2265;48.794;9.520;2023-07-31T05:06:51;15.80;98.00
4505;DHT22;2265;48.794;9.520;2023-07-31T05:09:18;15.80;98.00
4505;DHT22;2265;48.794;9.520;2023-07-31T05:11:47;15.80;98.00
4505;DHT22;2265;48.794;9.520;2023-07-31T05:14:14;15.90;98.00
4505;DHT22;2265;48.794;9.520;2023-07-31T05:16:42;15.90;98.00
4505;DHT22;2265;48.794;9.520;2023-07-31T05:19:09;15.90;98.00
4505;DHT22;2265;48.794;9.520;2023-07-31T05:21:36;16.00;98.00
4505;DHT22;2265;48.794;9.520;2023-07-31T05:24:03;16.00;98.00
4505;DHT22;2265;48.794;9.520;2023-07-31T05:26:30;16.10;98.00
4505;DHT22;2265;48.794;9.520;2023-07-31T05:29:00;16.20;98.00
4505;DHT22;2265;48.794;9.520;2023-07-31T05:31:27;16.20;98.00
4505;DHT22;2265;48.794;9.520;2023-07-31T05:33:54;16.30;98.00
4505;DHT22;2265;48.794;9.520;2023-07-31T05:36:21;16.40;98.00
4505;DHT22;2265;48.794;9.520;2023-07-31T05:38:48;16.40;98.00
4505;DHT22;2265;48.794;9.520;2023-07-31T05:41:15;16.40;98.00
4505;DHT22;2265;48.794;9.520;2023-07-31T05:43:44;16.50;98.00
4505;DHT22;2265;48.794;9.520;2023-07-31T05:46:12;16.60;98.00
4505;DHT22;2265;48.794;9.520;2023-07-31T05:48:39;16.60;98.00
4505;DHT22;2265;48.794;9.520;2023-07-31T05:51:07;16.80;98.00
4505;DHT22;2265;48.794;9.520;2023-07-31T05:53:34;16.80;98.00
4505;DHT22;2265;48.794;9.520;2023-07-31T05:56:05;16.80;98.00
4505;DHT22;2265;48.794;9.520;2023-07-31T05:58:32;16.90;98.00
4505;DHT22;2265;48.794;9.520;2023-07-31T06:00:59;16.90;98.00
4505;DHT22;2265;48.794;9.520;2023-07-31T06:03:27;17.00;98.00
4505;DHT22;2265;48.794;9.520;2023-07-31T06:05:54;17.20;98.00
4505;DHT22;2265;48.794;9.520;2023-07-31T06:08:21;17.30;98.00
4505;DHT22;2265;48.794;9.520;2023-07-31T06:10:48;17.40;98.00
4505;DHT22;2265;48.794;9.520;2023-07-31T06:13:15;17.50;98.00
4505;DHT22;2265;48.794;9.520;2023-07-31T06:15:43;17.70;98.00
4505;DHT22;2265;48.794;9.520;2023-07-31T06:18:10;17.80;98.00
4505;DHT22;2265;48.794;9.520;2023-07-31T06:20:41;17.80;98.00
4505;DHT22;2265;48.794;9.520;2023-07-31T06:23:08;17.80;98.00
4505;DHT22;2265;48.794;9.520;2023-07-31T06:25:35;17.90;98.00
4505;DHT22;2265;48.794;9.520;2023-07-31T06:28:03;18.00;98.00
4505;DHT22;2265;48.794;9.520;2023-07-31T06:30:31;18.00;98.00
4505;DHT22;2265;48.794;9.520;2023-07-31T06:33:01;18.00;98.00
4505;DHT22;2265;48.794;9.520;2023-07-31T06:35:28;18.10;98.00
4505;DHT22;2265;48.794;9.520;2023-07-31T06:37:57;18.20;98.00
4505;DHT22;2265;48.794;9.520;2023-07-31T06:40:24;18.30;98.00
4505;DHT22;2265;48.794;9.520;2023-07-31T06:42:51;18.40;98.00
4505;DHT22;2265;48.794;9.520;2023-07-31T06:45:18;18.50;98.00
4505;DHT22;2265;48.794;9.520;2023-07-31T06:47:46;18.60;98.00
4505;DHT22;2265;48.794;9.520;2023-07-31T06:50:14;18.60;98.00
4505;DHT22;2265;48.794;9.520;2023-07-31T06:52:41;18.70;98.00
4505;DHT22;2265;48.794;9.520;2023-07-31T06:55:19;18.70;98.00
4505;DHT22;2265;48.794;9.520;2023-07-31T06:57:47;18.70;98.00
4505;DHT22;2265;48.794;9.520;2023-07-31T07:00:14;18.80;98.00
4505;DHT22;2265;48.794;9.520;2023-07-31T07:02:41;18.80;98.00
4505;DHT22;2265;48.794;9.520;2023-07-31T07:05:09;18.80;98.00
4505;DHT22;2265;48.794;9.520;2023-07-31T07:07:36;18.80;98.00
4505;DHT22;2265;48.794;9.520;2023-07-31T07:10:05;18.70;98.00
4505;DHT22;2265;48.794;9.520;2023-07-31T07:12:34;18.80;98.00
4505;DHT22;2265;48.794;9.520;2023-07-31T07:15:01;19.00;98.00
4505;DHT22;2265;48.794;9.520;2023-07-31T07:17:29;19.10;98.00
4505;DHT22;2265;48.794;9.520;2023-07-31T07:19:58;19.10;98.00
4505;DHT22;2265;48.794;9.520;2023-07-31T07:22:25;19.20;98.00
4505;DHT22;2265;48.794;9.520;2023-07-31T07:24:52;19.40;98.00
4505;DHT22;2265;48.794;9.520;2023-07-31T07:27:19;19.50;98.00
4505;DHT22;2265;48.794;9.520;2023-07-31T07:29:51;19.70;98.00
4505;DHT22;2265;48.794;9.520;2023-07-31T07:32:18;19.80;98.00
4505;DHT22;2265;48.794;9.520;2023-07-31T07:34:47;19.90;98.00
4505;DHT22;2265;48.794;9.520;2023-07-31T07:37:14;20.00;98.00
4505;DHT22;2265;48.794;9.520;2023-07-31T07:39:41;20.10;98.00
4505;DHT22;2265;48.794;9.520;2023-07-31T07:42:08;20.20;98.00
4505;DHT22;2265;48.794;9.520;2023-07-31T07:44:35;20.10;98.00
4505;DHT22;2265;48.794;9.520;2023-07-31T07:47:07;20.10;98.00
4505;DHT22;2265;48.794;9.520;2023-07-31T07:49:34;20.00;98.00
4505;DHT22;2265;48.794;9.520;2023-07-31T07:52:02;20.00;98.00
4505;DHT22;2265;48.794;9.520;2023-07-31T07:54:30;20.10;98.00
4505;DHT22;2265;48.794;9.520;2023-07-31T07:56:57;20.10;98.00
4505;DHT22;2265;48.794;9.520;2023-07-31T07:59:24;20.10;98.00
4505;DHT22;2265;48.794;9.520;2023-07-31T08:01:51;20.20;98.00
4505;DHT22;2265;48.794;9.520;2023-07-31T08:04:20;20.20;98.00
4505;DHT22;2265;48.794;9.520;2023-07-31T08:06:48;20.30;98.00
4505;DHT22;2265;48.794;9.520;2023-07-31T08:09:15;20.40;98.00
4505;DHT22;2265;48.794;9.520;2023-07-31T08:11:43;20.50;98.00
4505;DHT22;2265;48.794;9.520;2023-07-31T08:14:10;20.60;98.00
4505;DHT22;2265;48.794;9.520;2023-07-31T08:16:37;20.70;98.00
4505;DHT22;2265;48.794;9.520;2023-07-31T08:19:04;20.60;98.00
4505;DHT22;2265;48.794;9.520;2023-07-31T08:21:33;20.70;98.00
4505;DHT22;2265;48.794;9.520;2023-07-31T08:24:00;20.70;98.00
4505;DHT22;2265;48.794;9.520;2023-07-31T08:26:27;20.80;98.00
4505;DHT22;2265;48.794;9.520;2023-07-31T08:28:54;20.90;98.00
4505;DHT22;2265;48.794;9.520;2023-07-31T08:31:22;21.00;98.00
4505;DHT22;2265;48.794;9.520;2023-07-31T08:33:49;20.80;98.00
4505;DHT22;2265;48.794;9.520;2023-07-31T08:36:16;20.90;98.00
4505;DHT22;2265;48.794;9.520;2023-07-31T08:38:45;21.00;98.00
4505;DHT22;2265;48.794;9.520;2023-07-31T08:41:12;21.10;98.00
4505;DHT22;2265;48.794;9.520;2023-07-31T08:43:40;21.30;98.00
4505;DHT22;2265;48.794;9.520;2023-07-31T08:46:07;21.50;98.00
4505;DHT22;2265;48.794;9.520;2023-07-31T08:48:35;21.50;98.00
4505;DHT22;2265;48.794;9.520;2023-07-31T08:51:03;21.70;98.00
4505;DHT22;2265;48.794;9.520;2023-07-31T08:53:30;21.80;98.00
4505;DHT22;2265;48.794;9.520;2023-07-31T08:56:00;21.90;98.00
4505;DHT22;2265;48.794;9.520;2023-07-31T08:58:31;22.00;98.00
4505;DHT22;2265;48.794;9.520;2023-07-31T09:01:00;22.00;98.00
4505;DHT22;2265;48.794;9.520;2023-07-31T09:03:29;22.10;98.00
4505;DHT22;2265;48.794;9.520;2023-07-31T09:05:57;22.10;98.00
4505;DHT22;2265;48.794;9.520;2023-07-31T09:08:27;22.20;98.00
4505;DHT22;2265;48.794;9.520;2023-07-31T09:11:00;22.20;98.00
4505;DHT22;2265;48.794;9.520;2023-07-31T09:13:30;22.20;98.00
4505;DHT22;2265;48.794;9.520;2023-07-31T09:15:57;22.50;98.00
4505;DHT22;2265;48.794;9.520;2023-07-31T09:18:24;22.60;98.00
4505;DHT22;2265;48.794;9.520;2023-07-31T09:21:01;22.70;98.00
4505;DHT22;2265;48.794;9.520;2023-07-31T09:23:40;22.80;98.00
4505;DHT22;2265;48.794;9.520;2023-07-31T09:26:08;22.90;98.00
4505;DHT22;2265;48.794;9.520;2023-07-31T09:28:36;22.90;98.00
4505;DHT22;2265;48.794;9.520;2023-07-31T09:31:03;23.10;98.00
4505;DHT22;2265;48.794;9.520;2023-07-31T09:33:30;23.10;98.00
4505;DHT22;2265;48.794;9.520;2023-07-31T09:35:58;23.20;98.00
4505;DHT22;2265;48.794;9.520;2023-07-31T09:38:29;23.10;98.00
4505;DHT22;2265;48.794;9.520;2023-07-31T09:40:59;23.20;98.00
4505;DHT22;2265;48.794;9.520;2023-07-31T09:43:27;23.40;98.00
4505;DHT22;2265;48.794;9.520;2023-07-31T09:45:55;23.50;98.00
4505;DHT22;2265;48.794;9.520;2023-07-31T09:48:24;23.40;98.00
4505;DHT22;2265;48.794;9.520;2023-07-31T09:50:54;23.50;98.00
4505;DHT22;2265;48.794;9.520;2023-07-31T09:53:28;23.50;97.70
4505;DHT22;2265;48.794;9.520;2023-07-31T09:55:58;23.60;97.50
4505;DHT22;2265;48.794;9.520;2023-07-31T09:58:29;23.30;97.50
4505;DHT22;2265;48.794;9.520;2023-07-31T10:00:58;23.40;98.00
4505;DHT22;2265;48.794;9.520;2023-07-31T10:03:26;23.50;97.60
4505;DHT22;2265;48.794;9.520;2023-07-31T10:05:56;23.40;98.00
4505;DHT22;2265;48.794;9.520;2023-07-31T10:08:27;23.50;98.00
4505;DHT22;2265;48.794;9.520;2023-07-31T10:10:58;23.70;98.00
4505;DHT22;2265;48.794;9.520;2023-07-31T10:13:28;23.90;98.00
4505;DHT22;2265;48.794;9.520;2023-07-31T10:15:59;24.10;97.40
4505;DHT22;2265;48.794;9.520;2023-07-31T10:18:26;24.10;95.80
4505;DHT22;2265;48.794;9.520;2023-07-31T10:20:54;24.10;95.20
4505;DHT22;2265;48.794;9.520;2023-07-31T10:23:23;24.00;95.60
4505;DHT22;2265;48.794;9.520;2023-07-31T10:25:53;23.90;97.60
4505;DHT22;2265;48.794;9.520;2023-07-31T10:28:21;23.70;96.90
4505;DHT22;2265;48.794;9.520;2023-07-31T10:30:50;23.50;97.00
4505;DHT22;2265;48.794;9.520;2023-07-31T10:33:20;23.40;96.50
4505;DHT22;2265;48.794;9.520;2023-07-31T10:35:48;23.40;98.00
4505;DHT22;2265;48.794;9.520;2023-07-31T10:38:17;23.30;97.60
4505;DHT22;2265;48.794;9.520;2023-07-31T10:40:44;23.50;98.00
4505;DHT22;2265;48.794;9.520;2023-07-31T10:43:23;23.70;98.00
4505;DHT22;2265;48.794;9.520;2023-07-31T10:45:53;23.80;97.10
4505;DHT22;2265;48.794;9.520;2023-07-31T10:48:21;23.90;98.00
4505;DHT22;2265;48.794;9.520;2023-07-31T10:50:49;24.00;97.70
4505;DHT22;2265;48.794;9.520;2023-07-31T10:53:23;24.00;97.60
4505;DHT22;2265;48.794;9.520;2023-07-31T10:55:50;23.90;97.20
4505;DHT22;2265;48.794;9.520;2023-07-31T10:58:19;23.80;96.30
4505;DHT22;2265;48.794;9.520;2023-07-31T11:00:46;24.00;96.30
4505;DHT22;2265;48.794;9.520;2023-07-31T11:03:19;24.30;96.10
4505;DHT22;2265;48.794;9.520;2023-07-31T11:05:51;24.60;94.60
4505;DHT22;2265;48.794;9.520;2023-07-31T11:08:22;24.50;94.60
4505;DHT22;2265;48.794;9.520;2023-07-31T11:10:50;24.20;96.10
4505;DHT22;2265;48.794;9.520;2023-07-31T11:13:19;24.00;96.10
4505;DHT22;2265;48.794;9.520;2023-07-31T11:15:47;24.00;96.40
4505;DHT22;2265;48.794;9.520;2023-07-31T11:18:14;24.20;95.80
4505;DHT22;2265;48.794;9.520;2023-07-31T11:20:44;24.70;96.00
4505;DHT22;2265;48.794;9.520;2023-07-31T11:23:11;24.70;95.20
4505;DHT22;2265;48.794;9.520;2023-07-31T11:25:39;25.00;94.90
4505;DHT22;2265;48.794;9.520;2023-07-31T11:28:09;25.00;94.30
4505;DHT22;2265;48.794;9.520;2023-07-31T11:30:37;25.10;94.20
4505;DHT22;2265;48.794;9.520;2023-07-31T11:33:07;25.60;93.50
4505;DHT22;2265;48.794;9.520;2023-07-31T11:35:35;25.90;93.00
4505;DHT22;2265;48.794;9.520;2023-07-31T11:38:04;26.20;91.70
4505;DHT22;2265;48.794;9.520;2023-07-31T11:40:41;26.00;90.90
4505;DHT22;2265;48.794;9.520;2023-07-31T11:43:08;25.60;91.60
4505;DHT22;2265;48.794;9.520;2023-07-31T11:45:37;25.20;91.70
4505;DHT22;2265;48.794;9.520;2023-07-31T11:48:05;24.90;92.80
4505;DHT22;2265;48.794;9.520;2023-07-31T11:50:33;24.70;94.20
4505;DHT22;2265;48.794;9.520;2023-07-31T11:53:03;24.60;94.00
4505;DHT22;2265;48.794;9.520;2023-07-31T11:55:33;24.40;94.50
4505;DHT22;2265;48.794;9.520;2023-07-31T11:58:00;24.20;94.10
4505;DHT22;2265;48.794;9.520;2023-07-31T12:00:27;24.10;94.70
4505;DHT22;2265;48.794;9.520;2023-07-31T12:02:55;24.00;95.10
4505;DHT22;2265;48.794;9.520;2023-07-31T12:05:22;23.90;95.80
4505;DHT22;2265;48.794;9.520;2023-07-31T12:07:51;23.90;96.10
4505;DHT22;2265;48.794;9.520;2023-07-31T12:10:25;23.90;95.80
4505;DHT22;2265;48.794;9.520;2023-07-31T12:13:02;23.90;95.70
4505;DHT22;2265;48.794;9.520;2023-07-31T12:15:37;23.80;95.50
4505;DHT22;2265;48.794;9.520;2023-07-31T12:18:05;23.80;97.00
4505;DHT22;2265;48.794;9.520;2023-07-31T12:20:33;24.10;97.60
4505;DHT22;2265;48.794;9.520;2023-07-31T12:23:00;24.20;94.90
4505;DHT22;2265;48.794;9.520;2023-07-31T12:25:31;24.30;97.00
4505;DHT22;2265;48.794;9.520;2023-07-31T12:28:05;24.30;96.50
4505;DHT22;2265;48.794;9.520;2023-07-31T12:30:37;24.20;96.70
4505;DHT22;2265;48.794;9.520;2023-07-31T12:33:06;24.00;96.30
4505;DHT22;2265;48.794;9.520;2023-07-31T12:35:42;24.10;96.60
4505;DHT22;2265;48.794;9.520;2023-07-31T12:38:13;24.10;97.60
4505;DHT22;2265;48.794;9.520;2023-07-31T12:40:41;24.10;96.00
4505;DHT22;2265;48.794;9.520;2023-07-31T12:43:09;24.00;96.40
4505;DHT22;2265;48.794;9.520;2023-07-31T12:45:37;23.80;97.20
4505;DHT22;2265;48.794;9.520;2023-07-31T12:48:04;23.80;97.50
4505;DHT22;2265;48.794;9.520;2023-07-31T12:50:34;23.70;98.00
4505;DHT22;2265;48.794;9.520;2023-07-31T12:53:02;23.80;97.90
4505;DHT22;2265;48.794;9.520;2023-07-31T12:55:29;23.70;98.00
4505;DHT22;2265;48.794;9.520;2023-07-31T12:57:57;23.80;98.00
4505;DHT22;2265;48.794;9.520;2023-07-31T13:00:25;23.80;97.90
4505;DHT22;2265;48.794;9.520;2023-07-31T13:02:52;23.70;98.00
4505;DHT22;2265;48.794;9.520;2023-07-31T13:05:20;23.70;98.00
4505;DHT22;2265;48.794;9.520;2023-07-31T13:07:48;23.70;98.00
4505;DHT22;2265;48.794;9.520;2023-07-31T13:10:15;23.60;98.00
4505;DHT22;2265;48.794;9.520;2023-07-31T13:12:42;23.60;98.00
4505;DHT22;2265;48.794;9.520;2023-07-31T13:15:12;23.50;98.00
4505;DHT22;2265;48.794;9.520;2023-07-31T13:17:40;23.40;98.00
4505;DHT22;2265;48.794;9.520;2023-07-31T13:20:08;23.50;98.00
4505;DHT22;2265;48.794;9.520;2023-07-31T13:22:35;23.40;98.00
4505;DHT22;2265;48.794;9.520;2023-07-31T13:25:03;23.30;98.00
4505;DHT22;2265;48.794;9.520;2023-07-31T13:27:30;23.20;98.00
4505;DHT22;2265;48.794;9.520;2023-07-31T13:29:58;23.20;98.00
4505;DHT22;2265;48.794;9.520;2023-07-31T13:32:25;23.30;98.00
4505;DHT22;2265;48.794;9.520;2023-07-31T13:34:53;23.40;98.00
4505;DHT22;2265;48.794;9.520;2023-07-31T13:37:21;23.20;98.00
4505;DHT22;2265;48.794;9.520;2023-07-31T13:39:48;23.20;98.00
4505;DHT22;2265;48.794;9.520;2023-07-31T13:42:16;23.20;98.00
4505;DHT22;2265;48.794;9.520;2023-07-31T13:44:43;23.20;98.00
4505;DHT22;2265;48.794;9.520;2023-07-31T13:47:10;23.20;98.00
4505;DHT22;2265;48.794;9.520;2023-07-31T13:49:37;23.20;98.00
4505;DHT22;2265;48.794;9.520;2023-07-31T13:52:06;23.30;98.00
4505;DHT22;2265;48.794;9.520;2023-07-31T13:54:33;23.30;98.00
4505;DHT22;2265;48.794;9.520;2023-07-31T13:57:00;23.20;98.00
4505;DHT22;2265;48.794;9.520;2023-07-31T13:59:27;23.20;98.00
4505;DHT22;2265;48.794;9.520;2023-07-31T14:01:55;23.30;98.00
4505;DHT22;2265;48.794;9.520;2023-07-31T14:04:22;23.30;98.00
4505;DHT22;2265;48.794;9.520;2023-07-31T14:06:49;23.30;98.00
4505;DHT22;2265;48.794;9.520;2023-07-31T14:09:17;23.30;98.00
4505;DHT22;2265;48.794;9.520;2023-07-31T14:11:44;23.30;98.00
4505;DHT22;2265;48.794;9.520;2023-07-31T14:14:11;23.40;98.00
4505;DHT22;2265;48.794;9.520;2023-07-31T14:16:38;23.30;98.00
4505;DHT22;2265;48.794;9.520;2023-07-31T14:19:05;23.40;98.00
4505;DHT22;2265;48.794;9.520;2023-07-31T14:21:34;23.40;98.00
4505;DHT22;2265;48.794;9.520;2023-07-31T14:24:01;23.40;98.00
4505;DHT22;2265;48.794;9.520;2023-07-31T14:26:29;23.50;98.00
4505;DHT22;2265;48.794;9.520;2023-07-31T14:28:57;23.60;98.00
4505;DHT22;2265;48.794;9.520;2023-07-31T14:31:24;23.60;98.00
4505;DHT22;2265;48.794;9.520;2023-07-31T14:33:52;23.60;98.00
4505;DHT22;2265;48.794;9.520;2023-07-31T14:36:20;23.70;98.00
4505;DHT22;2265;48.794;9.520;2023-07-31T14:38:47;23.70;98.00
4505;DHT22;2265;48.794;9.520;2023-07-31T14:41:14;23.90;98.00
4505;DHT22;2265;48.794;9.520;2023-07-31T14:43:42;24.20;98.00
4505;DHT22;2265;48.794;9.520;2023-07-31T14:46:10;24.40;98.00
4505;DHT22;2265;48.794;9.520;2023-07-31T14:48:37;24.40;98.00
4505;DHT22;2265;48.794;9.520;2023-07-31T14:51:08;24.60;98.00
4505;DHT22;2265;48.794;9.520;2023-07-31T14:53:35;24.50;97.70
4505;DHT22;2265;48.794;9.520;2023-07-31T14:56:02;24.60;97.50
4505;DHT22;2265;48.794;9.520;2023-07-31T14:58:30;24.60;98.00
4505;DHT22;2265;48.794;9.520;2023-07-31T15:00:58;24.70;97.20
4505;DHT22;2265;48.794;9.520;2023-07-31T15:03:25;24.90;97.30
4505;DHT22;2265;48.794;9.520;2023-07-31T15:05:52;25.20;98.00
4505;DHT22;2265;48.794;9.520;2023-07-31T15:08:19;25.30;95.50
4505;DHT22;2265;48.794;9.520;2023-07-31T15:10:46;25.20;96.00
4505;DHT22;2265;48.794;9.520;2023-07-31T15:13:13;25.00;96.70
4505;DHT22;2265;48.794;9.520;2023-07-31T15:15:40;25.00;96.80
4505;DHT22;2265;48.794;9.520;2023-07-31T15:18:09;24.90;97.20
4505;DHT22;2265;48.794;9.520;2023-07-31T15:20:36;24.90;98.00
4505;DHT22;2265;48.794;9.520;2023-07-31T15:23:03;25.00;97.60
4505;DHT22;2265;48.794;9.520;2023-07-31T15:25:30;25.10;98.00
4505;DHT22;2265;48.794;9.520;2023-07-31T15:27:57;25.20;97.90
4505;DHT22;2265;48.794;9.520;2023-07-31T15:30:24;25.50;97.00
4505;DHT22;2265;48.794;9.520;2023-07-31T15:33:01;25.70;97.50
4505;DHT22;2265;48.794;9.520;2023-07-31T15:35:29;25.90;95.20
4505;DHT22;2265;48.794;9.520;2023-07-31T15:37:56;26.20;95.50
4505;DHT22;2265;48.794;9.520;2023-07-31T15:40:23;26.30;94.00
4505;DHT22;2265;48.794;9.520;2023-07-31T15:42:50;26.20;94.40
4505;DHT22;2265;48.794;9.520;2023-07-31T15:45:17;26.20;94.10
4505;DHT22;2265;48.794;9.520;2023-07-31T15:47:44;26.30;95.60
4505;DHT22;2265;48.794;9.520;2023-07-31T15:50:12;26.20;94.00
4505;DHT22;2265;48.794;9.520;2023-07-31T15:52:40;25.80;93.80
4505;DHT22;2265;48.794;9.520;2023-07-31T15:55:08;25.80;93.90
4505;DHT22;2265;48.794;9.520;2023-07-31T15:57:36;25.70;93.20
4505;DHT22;2265;48.794;9.520;2023-07-31T16:00:04;25.50;93.90
4505;DHT22;2265;48.794;9.520;2023-07-31T16:07:31;25.80;94.40
4505;DHT22;2265;48.794;9.520;2023-07-31T16:10:00;26.10;93.40
4505;DHT22;2265;48.794;9.520;2023-07-31T16:12:27;26.40;92.20